sensor_id;sensor_type;location;lat;lon;timestamp;P1;durP1;ratioP1;P2;durP2;ratioP2
19057;SDS011;9662;53.612;9.914;2022-07-29T00:01:22;963.77;;;884.13;;
19057;SDS011;9662;53.612;9.914;2022-07-29T00:03:49;967.53;;;886.25;;
19057;SDS011;9662;53.612;9.914;2022-07-29T00:06:16;961.35;;;880.63;;
19057;SDS011;9662;53.612;9.914;2022-07-29T00:08:43;960.97;;;881.53;;
19057;SDS011;9662;53.612;9.914;2022-07-29T00:11:11;960.65;;;880.67;;
19057;SDS011;9662;53.612;9.914;2022-07-29T00:13:38;960.78;;;881.35;;
19057;SDS011;9662;53.612;9.914;2022-07-29T00:16:05;941.55;;;865.95;;
19057;SDS011;9662;53.612;9.914;2022-07-29T00:18:32;935.33;;;860.55;;
19057;SDS011;9662;53.612;9.914;2022-07-29T00:20:58;958.88;;;878.65;;
19057;SDS011;9662;53.612;9.914;2022-07-29T00:23:25;964.22;;;883.45;;
19057;SDS011;9662;53.612;9.914;2022-07-29T00:25:52;961.88;;;880.83;;
19057;SDS011;9662;53.612;9.914;2022-07-29T00:28:20;958.25;;;877.85;;
19057;SDS011;9662;53.612;9.914;2022-07-29T00:30:47;969.90;;;887.33;;
19057;SDS011;9662;53.612;9.914;2022-07-29T00:33:14;959.65;;;876.55;;
19057;SDS011;9662;53.612;9.914;2022-07-29T00:35:40;963.83;;;881.67;;
19057;SDS011;9662;53.612;9.914;2022-07-29T00:38:09;958.17;;;876.58;;
19057;SDS011;9662;53.612;9.914;2022-07-29T00:40:36;959.80;;;877.80;;
19057;SDS011;9662;53.612;9.914;2022-07-29T00:43:03;960.90;;;879.03;;
19057;SDS011;9662;53.612;9.914;2022-07-29T00:45:31;955.37;;;874.73;;
19057;SDS011;9662;53.612;9.914;2022-07-29T00:47:58;961.15;;;879.55;;
19057;SDS011;9662;53.612;9.914;2022-07-29T00:50:25;957.13;;;874.13;;
19057;SDS011;9662;53.612;9.914;2022-07-29T00:52:52;951.13;;;868.60;;
19057;SDS011;9662;53.612;9.914;2022-07-29T00:55:19;952.33;;;870.83;;
19057;SDS011;9662;53.612;9.914;2022-07-29T00:57:46;947.22;;;866.85;;
19057;SDS011;9662;53.612;9.914;2022-07-29T01:00:14;951.13;;;869.58;;
19057;SDS011;9662;53.612;9.914;2022-07-29T01:02:44;948.03;;;866.47;;
19057;SDS011;9662;53.612;9.914;2022-07-29T01:05:14;939.85;;;860.38;;
19057;SDS011;9662;53.612;9.914;2022-07-29T01:07:43;946.25;;;865.60;;
19057;SDS011;9662;53.612;9.914;2022-07-29T01:10:12;950.40;;;869.17;;
19057;SDS011;9662;53.612;9.914;2022-07-29T01:12:40;955.20;;;874.30;;
19057;SDS011;9662;53.612;9.914;2022-07-29T01:15:10;923.60;;;848.33;;
19057;SDS011;9662;53.612;9.914;2022-07-29T01:17:38;934.50;;;856.38;;
19057;SDS011;9662;53.612;9.914;2022-07-29T01:20:12;943.42;;;862.72;;
19057;SDS011;9662;53.612;9.914;2022-07-29T01:23:10;954.38;;;870.70;;
19057;SDS011;9662;53.612;9.914;2022-07-29T01:26:01;946.97;;;864.25;;
19057;SDS011;9662;53.612;9.914;2022-07-29T01:28:44;941.20;;;860.33;;
19057;SDS011;9662;53.612;9.914;2022-07-29T01:31:18;937.47;;;857.15;;
19057;SDS011;9662;53.612;9.914;2022-07-29T01:33:49;938.63;;;859.75;;
19057;SDS011;9662;53.612;9.914;2022-07-29T01:36:22;936.77;;;857.93;;
19057;SDS011;9662;53.612;9.914;2022-07-29T01:38:54;942.78;;;862.53;;
19057;SDS011;9662;53.612;9.914;2022-07-29T01:41:25;932.03;;;852.58;;
19057;SDS011;9662;53.612;9.914;2022-07-29T01:43:59;945.13;;;863.03;;
19057;SDS011;9662;53.612;9.914;2022-07-29T01:46:34;946.72;;;862.08;;
19057;SDS011;9662;53.612;9.914;2022-07-29T01:49:06;944.75;;;861.60;;
19057;SDS011;9662;53.612;9.914;2022-07-29T01:51:38;937.50;;;853.47;;
19057;SDS011;9662;53.612;9.914;2022-07-29T01:54:10;941.75;;;857.13;;
19057;SDS011;9662;53.612;9.914;2022-07-29T01:56:40;938.67;;;854.60;;
19057;SDS011;9662;53.612;9.914;2022-07-29T01:59:11;945.53;;;861.10;;
19057;SDS011;9662;53.612;9.914;2022-07-29T02:01:39;943.70;;;860.35;;
19057;SDS011;9662;53.612;9.914;2022-07-29T02:04:07;936.67;;;853.53;;
19057;SDS011;9662;53.612;9.914;2022-07-29T02:06:37;927.60;;;845.70;;
19057;SDS011;9662;53.612;9.914;2022-07-29T02:09:06;929.72;;;845.05;;
19057;SDS011;9662;53.612;9.914;2022-07-29T02:11:35;947.35;;;857.97;;
19057;SDS011;9662;53.612;9.914;2022-07-29T02:14:03;944.17;;;856.92;;
19057;SDS011;9662;53.612;9.914;2022-07-29T02:16:34;931.25;;;845.58;;
19057;SDS011;9662;53.612;9.914;2022-07-29T02:19:04;941.53;;;855.73;;
19057;SDS011;9662;53.612;9.914;2022-07-29T02:21:33;936.42;;;852.33;;
19057;SDS011;9662;53.612;9.914;2022-07-29T02:24:02;943.75;;;858.38;;
19057;SDS011;9662;53.612;9.914;2022-07-29T02:26:30;943.17;;;862.13;;
19057;SDS011;9662;53.612;9.914;2022-07-29T02:28:58;934.88;;;856.80;;
19057;SDS011;9662;53.612;9.914;2022-07-29T02:31:26;932.08;;;854.72;;
19057;SDS011;9662;53.612;9.914;2022-07-29T02:33:59;944.40;;;864.20;;
19057;SDS011;9662;53.612;9.914;2022-07-29T02:36:28;950.17;;;862.63;;
19057;SDS011;9662;53.612;9.914;2022-07-29T02:38:55;946.50;;;861.58;;
19057;SDS011;9662;53.612;9.914;2022-07-29T02:41:26;944.67;;;860.10;;
19057;SDS011;9662;53.612;9.914;2022-07-29T02:43:55;955.07;;;865.87;;
19057;SDS011;9662;53.612;9.914;2022-07-29T02:46:29;951.45;;;862.85;;
19057;SDS011;9662;53.612;9.914;2022-07-29T02:49:01;965.95;;;877.28;;
19057;SDS011;9662;53.612;9.914;2022-07-29T02:51:33;957.55;;;868.40;;
19057;SDS011;9662;53.612;9.914;2022-07-29T02:54:07;959.55;;;869.78;;
19057;SDS011;9662;53.612;9.914;2022-07-29T02:56:36;948.95;;;861.25;;
19057;SDS011;9662;53.612;9.914;2022-07-29T02:59:06;962.83;;;873.38;;
19057;SDS011;9662;53.612;9.914;2022-07-29T03:01:36;961.33;;;872.42;;
19057;SDS011;9662;53.612;9.914;2022-07-29T03:04:08;958.15;;;869.55;;
19057;SDS011;9662;53.612;9.914;2022-07-29T03:06:37;967.05;;;878.88;;
19057;SDS011;9662;53.612;9.914;2022-07-29T03:09:07;965.88;;;877.70;;
19057;SDS011;9662;53.612;9.914;2022-07-29T03:11:36;963.15;;;876.90;;
19057;SDS011;9662;53.612;9.914;2022-07-29T03:14:04;968.22;;;878.78;;
19057;SDS011;9662;53.612;9.914;2022-07-29T03:16:31;967.35;;;878.58;;
19057;SDS011;9662;53.612;9.914;2022-07-29T03:19:01;965.47;;;876.07;;
19057;SDS011;9662;53.612;9.914;2022-07-29T03:21:31;965.67;;;875.92;;
19057;SDS011;9662;53.612;9.914;2022-07-29T03:23:58;974.40;;;883.63;;
19057;SDS011;9662;53.612;9.914;2022-07-29T03:26:24;969.37;;;879.93;;
19057;SDS011;9662;53.612;9.914;2022-07-29T03:28:51;972.90;;;884.93;;
19057;SDS011;9662;53.612;9.914;2022-07-29T03:31:18;975.03;;;887.17;;
19057;SDS011;9662;53.612;9.914;2022-07-29T03:33:45;968.17;;;880.67;;
19057;SDS011;9662;53.612;9.914;2022-07-29T03:36:12;978.47;;;890.67;;
19057;SDS011;9662;53.612;9.914;2022-07-29T03:38:40;971.28;;;883.78;;
19057;SDS011;9662;53.612;9.914;2022-07-29T03:41:10;981.87;;;894.80;;
19057;SDS011;9662;53.612;9.914;2022-07-29T03:43:39;972.05;;;885.67;;
19057;SDS011;9662;53.612;9.914;2022-07-29T03:46:08;987.47;;;900.67;;
19057;SDS011;9662;53.612;9.914;2022-07-29T03:48:39;969.25;;;888.58;;
19057;SDS011;9662;53.612;9.914;2022-07-29T03:51:12;962.65;;;882.92;;
19057;SDS011;9662;53.612;9.914;2022-07-29T03:53:40;968.53;;;888.88;;
19057;SDS011;9662;53.612;9.914;2022-07-29T03:56:07;967.20;;;886.40;;
19057;SDS011;9662;53.612;9.914;2022-07-29T03:58:36;970.80;;;888.63;;
19057;SDS011;9662;53.612;9.914;2022-07-29T04:01:04;962.85;;;882.35;;
19057;SDS011;9662;53.612;9.914;2022-07-29T04:03:31;982.42;;;895.67;;
19057;SDS011;9662;53.612;9.914;2022-07-29T04:05:59;981.08;;;894.97;;
19057;SDS011;9662;53.612;9.914;2022-07-29T04:08:26;977.47;;;891.92;;
19057;SDS011;9662;53.612;9.914;2022-07-29T04:10:55;972.88;;;888.58;;
19057;SDS011;9662;53.612;9.914;2022-07-29T04:13:21;968.55;;;887.80;;
19057;SDS011;9662;53.612;9.914;2022-07-29T04:15:48;984.47;;;901.30;;
19057;SDS011;9662;53.612;9.914;2022-07-29T04:18:15;978.53;;;894.55;;
19057;SDS011;9662;53.612;9.914;2022-07-29T04:20:42;984.00;;;900.40;;
19057;SDS011;9662;53.612;9.914;2022-07-29T04:23:08;974.55;;;895.00;;
19057;SDS011;9662;53.612;9.914;2022-07-29T04:25:36;981.25;;;899.90;;
19057;SDS011;9662;53.612;9.914;2022-07-29T04:28:05;965.08;;;887.58;;
19057;SDS011;9662;53.612;9.914;2022-07-29T04:30:33;960.28;;;883.55;;
19057;SDS011;9662;53.612;9.914;2022-07-29T04:33:01;949.63;;;873.70;;
19057;SDS011;9662;53.612;9.914;2022-07-29T04:35:29;974.15;;;894.80;;
19057;SDS011;9662;53.612;9.914;2022-07-29T04:37:56;991.00;;;910.47;;
19057;SDS011;9662;53.612;9.914;2022-07-29T04:40:23;990.97;;;908.83;;
19057;SDS011;9662;53.612;9.914;2022-07-29T04:42:50;1014.33;;;926.33;;
19057;SDS011;9662;53.612;9.914;2022-07-29T04:45:18;1008.35;;;920.83;;
19057;SDS011;9662;53.612;9.914;2022-07-29T04:47:45;1012.50;;;925.67;;
19057;SDS011;9662;53.612;9.914;2022-07-29T04:50:12;1024.65;;;933.22;;
19057;SDS011;9662;53.612;9.914;2022-07-29T04:52:38;1014.43;;;925.00;;
19057;SDS011;9662;53.612;9.914;2022-07-29T04:55:05;1025.90;;;935.13;;
19057;SDS011;9662;53.612;9.914;2022-07-29T04:57:33;1025.75;;;934.63;;
19057;SDS011;9662;53.612;9.914;2022-07-29T04:59:59;1025.43;;;935.08;;
19057;SDS011;9662;53.612;9.914;2022-07-29T05:02:28;1017.00;;;927.47;;
19057;SDS011;9662;53.612;9.914;2022-07-29T05:04:54;1012.65;;;923.40;;
19057;SDS011;9662;53.612;9.914;2022-07-29T05:07:21;1001.60;;;915.70;;
19057;SDS011;9662;53.612;9.914;2022-07-29T05:09:48;1006.97;;;918.38;;
19057;SDS011;9662;53.612;9.914;2022-07-29T05:12:14;1016.00;;;927.47;;
19057;SDS011;9662;53.612;9.914;2022-07-29T05:14:41;1016.00;;;928.85;;
19057;SDS011;9662;53.612;9.914;2022-07-29T05:17:08;1022.33;;;935.33;;
19057;SDS011;9662;53.612;9.914;2022-07-29T05:19:36;1018.58;;;931.05;;
19057;SDS011;9662;53.612;9.914;2022-07-29T05:22:03;987.60;;;907.40;;
19057;SDS011;9662;53.612;9.914;2022-07-29T05:24:30;996.05;;;912.92;;
19057;SDS011;9662;53.612;9.914;2022-07-29T05:26:57;986.97;;;906.33;;
19057;SDS011;9662;53.612;9.914;2022-07-29T05:29:24;991.63;;;907.88;;
19057;SDS011;9662;53.612;9.914;2022-07-29T05:31:51;1002.85;;;916.05;;
19057;SDS011;9662;53.612;9.914;2022-07-29T05:34:17;1001.15;;;913.22;;
19057;SDS011;9662;53.612;9.914;2022-07-29T05:36:46;1007.38;;;918.03;;
19057;SDS011;9662;53.612;9.914;2022-07-29T05:39:13;1011.58;;;922.58;;
19057;SDS011;9662;53.612;9.914;2022-07-29T05:41:39;1008.67;;;920.33;;
19057;SDS011;9662;53.612;9.914;2022-07-29T05:44:06;1011.67;;;923.95;;
19057;SDS011;9662;53.612;9.914;2022-07-29T05:46:33;1023.38;;;934.60;;
19057;SDS011;9662;53.612;9.914;2022-07-29T05:49:00;1024.18;;;935.83;;
19057;SDS011;9662;53.612;9.914;2022-07-29T05:51:27;1037.85;;;951.00;;
19057;SDS011;9662;53.612;9.914;2022-07-29T05:53:56;1043.95;;;955.60;;
19057;SDS011;9662;53.612;9.914;2022-07-29T05:56:23;1039.63;;;950.97;;
19057;SDS011;9662;53.612;9.914;2022-07-29T05:58:50;1051.25;;;961.78;;
19057;SDS011;9662;53.612;9.914;2022-07-29T06:01:17;1055.72;;;962.47;;
19057;SDS011;9662;53.612;9.914;2022-07-29T06:03:44;1054.78;;;961.85;;
19057;SDS011;9662;53.612;9.914;2022-07-29T06:06:11;1074.03;;;979.83;;
19057;SDS011;9662;53.612;9.914;2022-07-29T06:08:38;1070.47;;;977.13;;
19057;SDS011;9662;53.612;9.914;2022-07-29T06:11:06;1072.78;;;979.22;;
19057;SDS011;9662;53.612;9.914;2022-07-29T06:13:33;1074.07;;;980.67;;
19057;SDS011;9662;53.612;9.914;2022-07-29T06:16:00;1074.22;;;980.83;;
19057;SDS011;9662;53.612;9.914;2022-07-29T06:18:27;1080.13;;;986.97;;
19057;SDS011;9662;53.612;9.914;2022-07-29T06:20:54;1084.95;;;990.60;;
19057;SDS011;9662;53.612;9.914;2022-07-29T06:23:20;1096.13;;;999.90;;
19057;SDS011;9662;53.612;9.914;2022-07-29T06:25:47;1097.43;;;999.90;;
19057;SDS011;9662;53.612;9.914;2022-07-29T06:28:15;1107.07;;;999.90;;
19057;SDS011;9662;53.612;9.914;2022-07-29T06:30:42;1136.05;;;999.90;;
19057;SDS011;9662;53.612;9.914;2022-07-29T06:33:09;1150.63;;;999.90;;
19057;SDS011;9662;53.612;9.914;2022-07-29T06:35:41;1138.75;;;999.90;;
19057;SDS011;9662;53.612;9.914;2022-07-29T06:38:08;1134.72;;;999.90;;
19057;SDS011;9662;53.612;9.914;2022-07-29T06:40:36;1130.85;;;999.90;;
19057;SDS011;9662;53.612;9.914;2022-07-29T06:43:25;1098.13;;;999.90;;
19057;SDS011;9662;53.612;9.914;2022-07-29T06:45:52;1133.80;;;999.90;;
19057;SDS011;9662;53.612;9.914;2022-07-29T06:48:20;1107.50;;;999.90;;
19057;SDS011;9662;53.612;9.914;2022-07-29T06:50:46;1113.25;;;999.90;;
19057;SDS011;9662;53.612;9.914;2022-07-29T06:53:13;1107.82;;;999.90;;
19057;SDS011;9662;53.612;9.914;2022-07-29T06:55:40;1005.83;;;922.47;;
19057;SDS011;9662;53.612;9.914;2022-07-29T06:58:07;993.08;;;910.95;;
19057;SDS011;9662;53.612;9.914;2022-07-29T07:00:35;1025.47;;;941.20;;
19057;SDS011;9662;53.612;9.914;2022-07-29T07:03:02;1066.90;;;978.88;;
19057;SDS011;9662;53.612;9.914;2022-07-29T07:05:29;1125.97;;;999.90;;
19057;SDS011;9662;53.612;9.914;2022-07-29T07:07:56;1133.57;;;999.90;;
19057;SDS011;9662;53.612;9.914;2022-07-29T07:10:22;1123.10;;;999.90;;
19057;SDS011;9662;53.612;9.914;2022-07-29T07:12:49;1158.25;;;999.90;;
19057;SDS011;9662;53.612;9.914;2022-07-29T07:15:16;1144.72;;;999.90;;
19057;SDS011;9662;53.612;9.914;2022-07-29T07:17:48;1149.00;;;999.90;;
19057;SDS011;9662;53.612;9.914;2022-07-29T07:20:14;1170.65;;;999.90;;
19057;SDS011;9662;53.612;9.914;2022-07-29T07:22:41;1179.82;;;999.90;;
19057;SDS011;9662;53.612;9.914;2022-07-29T07:25:08;1166.30;;;999.90;;
19057;SDS011;9662;53.612;9.914;2022-07-29T07:27:35;1138.68;;;999.90;;
19057;SDS011;9662;53.612;9.914;2022-07-29T07:30:03;1177.90;;;999.90;;
19057;SDS011;9662;53.612;9.914;2022-07-29T07:32:31;1121.45;;;999.90;;
19057;SDS011;9662;53.612;9.914;2022-07-29T07:34:59;1121.30;;;999.90;;
19057;SDS011;9662;53.612;9.914;2022-07-29T07:37:26;1116.18;;;999.90;;
19057;SDS011;9662;53.612;9.914;2022-07-29T07:39:53;1082.43;;;990.85;;
19057;SDS011;9662;53.612;9.914;2022-07-29T07:42:20;1103.90;;;999.90;;
19057;SDS011;9662;53.612;9.914;2022-07-29T07:44:47;1103.10;;;999.90;;
19057;SDS011;9662;53.612;9.914;2022-07-29T07:47:14;1098.90;;;999.90;;
19057;SDS011;9662;53.612;9.914;2022-07-29T07:49:44;1019.78;;;934.40;;
19057;SDS011;9662;53.612;9.914;2022-07-29T07:52:13;1091.75;;;999.75;;
19057;SDS011;9662;53.612;9.914;2022-07-29T07:54:41;1074.55;;;985.15;;
19057;SDS011;9662;53.612;9.914;2022-07-29T07:57:09;1109.82;;;999.90;;
19057;SDS011;9662;53.612;9.914;2022-07-29T07:59:36;1077.93;;;988.08;;
19057;SDS011;9662;53.612;9.914;2022-07-29T08:02:03;1065.75;;;976.95;;
19057;SDS011;9662;53.612;9.914;2022-07-29T08:04:29;1067.30;;;978.25;;
19057;SDS011;9662;53.612;9.914;2022-07-29T08:06:57;1052.60;;;965.08;;
19057;SDS011;9662;53.612;9.914;2022-07-29T08:09:26;1064.03;;;975.35;;
19057;SDS011;9662;53.612;9.914;2022-07-29T08:11:54;1050.25;;;962.83;;
19057;SDS011;9662;53.612;9.914;2022-07-29T08:14:21;1064.18;;;975.78;;
19057;SDS011;9662;53.612;9.914;2022-07-29T08:16:48;1084.72;;;994.20;;
19057;SDS011;9662;53.612;9.914;2022-07-29T08:19:15;1089.40;;;998.70;;
19057;SDS011;9662;53.612;9.914;2022-07-29T08:21:42;1099.85;;;999.90;;
19057;SDS011;9662;53.612;9.914;2022-07-29T08:24:09;1051.35;;;963.10;;
19057;SDS011;9662;53.612;9.914;2022-07-29T08:26:55;1043.60;;;955.78;;
19057;SDS011;9662;53.612;9.914;2022-07-29T08:29:22;1044.53;;;956.28;;
19057;SDS011;9662;53.612;9.914;2022-07-29T08:31:49;1095.13;;;999.90;;
19057;SDS011;9662;53.612;9.914;2022-07-29T08:34:15;1099.80;;;999.90;;
19057;SDS011;9662;53.612;9.914;2022-07-29T08:36:42;1131.22;;;999.90;;
19057;SDS011;9662;53.612;9.914;2022-07-29T08:39:09;1149.50;;;999.90;;
19057;SDS011;9662;53.612;9.914;2022-07-29T08:41:36;1123.43;;;999.90;;
19057;SDS011;9662;53.612;9.914;2022-07-29T08:44:04;1072.45;;;981.05;;
19057;SDS011;9662;53.612;9.914;2022-07-29T08:46:31;1125.45;;;999.90;;
19057;SDS011;9662;53.612;9.914;2022-07-29T08:48:58;1107.88;;;999.90;;
19057;SDS011;9662;53.612;9.914;2022-07-29T08:51:24;1116.78;;;999.90;;
19057;SDS011;9662;53.612;9.914;2022-07-29T08:53:52;1129.40;;;999.90;;
19057;SDS011;9662;53.612;9.914;2022-07-29T08:56:20;1098.03;;;999.90;;
19057;SDS011;9662;53.612;9.914;2022-07-29T08:58:48;1086.55;;;994.75;;
19057;SDS011;9662;53.612;9.914;2022-07-29T09:01:17;1113.10;;;999.90;;
19057;SDS011;9662;53.612;9.914;2022-07-29T09:03:48;1098.75;;;999.90;;
19057;SDS011;9662;53.612;9.914;2022-07-29T09:06:17;1057.88;;;968.58;;
19057;SDS011;9662;53.612;9.914;2022-07-29T09:08:45;1037.20;;;949.33;;
19057;SDS011;9662;53.612;9.914;2022-07-29T09:11:12;1037.20;;;949.33;;
19057;SDS011;9662;53.612;9.914;2022-07-29T09:13:39;1061.63;;;972.40;;
19057;SDS011;9662;53.612;9.914;2022-07-29T09:16:06;1086.05;;;995.10;;
19057;SDS011;9662;53.612;9.914;2022-07-29T09:18:35;1094.70;;;999.90;;
19057;SDS011;9662;53.612;9.914;2022-07-29T09:21:03;1084.20;;;993.33;;
19057;SDS011;9662;53.612;9.914;2022-07-29T09:24:03;1127.65;;;999.90;;
19057;SDS011;9662;53.612;9.914;2022-07-29T09:26:32;1151.30;;;999.90;;
19057;SDS011;9662;53.612;9.914;2022-07-29T09:29:01;1137.10;;;999.90;;
19057;SDS011;9662;53.612;9.914;2022-07-29T09:31:36;1073.43;;;983.28;;
19057;SDS011;9662;53.612;9.914;2022-07-29T09:34:05;993.20;;;908.97;;
19057;SDS011;9662;53.612;9.914;2022-07-29T09:36:38;1041.97;;;954.22;;
19057;SDS011;9662;53.612;9.914;2022-07-29T09:39:06;1149.90;;;999.90;;
19057;SDS011;9662;53.612;9.914;2022-07-29T09:41:43;1144.05;;;999.90;;
19057;SDS011;9662;53.612;9.914;2022-07-29T09:44:11;1146.07;;;999.90;;
19057;SDS011;9662;53.612;9.914;2022-07-29T09:46:39;1144.40;;;999.90;;
19057;SDS011;9662;53.612;9.914;2022-07-29T09:49:09;1143.67;;;999.90;;
19057;SDS011;9662;53.612;9.914;2022-07-29T09:51:39;1145.32;;;999.90;;
19057;SDS011;9662;53.612;9.914;2022-07-29T09:57:02;1169.20;;;999.90;;
19057;SDS011;9662;53.612;9.914;2022-07-29T09:59:29;1245.43;;;999.90;;
19057;SDS011;9662;53.612;9.914;2022-07-29T10:01:56;1261.80;;;999.90;;
19057;SDS011;9662;53.612;9.914;2022-07-29T10:04:24;1301.68;;;999.90;;
19057;SDS011;9662;53.612;9.914;2022-07-29T10:07:03;1347.78;;;999.90;;
19057;SDS011;9662;53.612;9.914;2022-07-29T10:09:30;1316.40;;;999.90;;
19057;SDS011;9662;53.612;9.914;2022-07-29T10:12:05;1315.25;;;999.90;;
19057;SDS011;9662;53.612;9.914;2022-07-29T10:14:33;1301.07;;;999.90;;
19057;SDS011;9662;53.612;9.914;2022-07-29T10:17:00;1330.35;;;999.90;;
19057;SDS011;9662;53.612;9.914;2022-07-29T10:19:29;1428.75;;;999.90;;
19057;SDS011;9662;53.612;9.914;2022-07-29T10:21:58;1521.93;;;999.90;;
19057;SDS011;9662;53.612;9.914;2022-07-29T10:24:25;1596.17;;;999.90;;
19057;SDS011;9662;53.612;9.914;2022-07-29T10:26:53;1570.40;;;999.90;;
19057;SDS011;9662;53.612;9.914;2022-07-29T10:29:21;1548.95;;;999.90;;
19057;SDS011;9662;53.612;9.914;2022-07-29T10:31:49;1555.95;;;999.90;;
19057;SDS011;9662;53.612;9.914;2022-07-29T10:34:30;1520.97;;;999.90;;
19057;SDS011;9662;53.612;9.914;2022-07-29T10:37:03;1485.88;;;999.90;;
19057;SDS011;9662;53.612;9.914;2022-07-29T10:39:41;1426.82;;;999.90;;
19057;SDS011;9662;53.612;9.914;2022-07-29T10:42:19;1446.88;;;999.90;;
19057;SDS011;9662;53.612;9.914;2022-07-29T10:44:49;1445.68;;;999.90;;
19057;SDS011;9662;53.612;9.914;2022-07-29T10:47:21;1464.63;;;999.90;;
19057;SDS011;9662;53.612;9.914;2022-07-29T10:49:56;1493.32;;;999.90;;
19057;SDS011;9662;53.612;9.914;2022-07-29T10:52:24;1506.45;;;999.90;;
19057;SDS011;9662;53.612;9.914;2022-07-29T10:55:18;1502.80;;;999.90;;
19057;SDS011;9662;53.612;9.914;2022-07-29T10:58:10;1494.10;;;999.90;;
19057;SDS011;9662;53.612;9.914;2022-07-29T11:00:38;1467.97;;;999.90;;
19057;SDS011;9662;53.612;9.914;2022-07-29T11:03:05;1421.70;;;999.90;;
19057;SDS011;9662;53.612;9.914;2022-07-29T11:05:51;1482.25;;;999.90;;
19057;SDS011;9662;53.612;9.914;2022-07-29T11:08:24;1446.35;;;999.90;;
19057;SDS011;9662;53.612;9.914;2022-07-29T11:10:52;1461.72;;;999.90;;
19057;SDS011;9662;53.612;9.914;2022-07-29T11:13:49;1465.97;;;999.90;;
19057;SDS011;9662;53.612;9.914;2022-07-29T11:16:17;1448.07;;;999.90;;
19057;SDS011;9662;53.612;9.914;2022-07-29T11:21:49;1455.13;;;999.90;;
19057;SDS011;9662;53.612;9.914;2022-07-29T11:24:18;1431.03;;;999.90;;
19057;SDS011;9662;53.612;9.914;2022-07-29T11:29:34;1456.70;;;999.90;;
19057;SDS011;9662;53.612;9.914;2022-07-29T11:32:08;1455.50;;;999.90;;
19057;SDS011;9662;53.612;9.914;2022-07-29T11:34:36;1445.68;;;999.90;;
19057;SDS011;9662;53.612;9.914;2022-07-29T11:40:14;1444.68;;;999.90;;
19057;SDS011;9662;53.612;9.914;2022-07-29T11:42:43;1436.05;;;999.90;;
19057;SDS011;9662;53.612;9.914;2022-07-29T11:45:12;1442.00;;;999.90;;
19057;SDS011;9662;53.612;9.914;2022-07-29T11:47:47;1430.97;;;999.90;;
19057;SDS011;9662;53.612;9.914;2022-07-29T11:50:17;1436.05;;;999.90;;
19057;SDS011;9662;53.612;9.914;2022-07-29T11:52:54;1410.43;;;999.90;;
19057;SDS011;9662;53.612;9.914;2022-07-29T11:55:22;1439.97;;;999.90;;
19057;SDS011;9662;53.612;9.914;2022-07-29T11:57:50;1436.47;;;999.90;;
19057;SDS011;9662;53.612;9.914;2022-07-29T12:00:25;1431.28;;;999.90;;
19057;SDS011;9662;53.612;9.914;2022-07-29T12:02:55;1459.90;;;999.90;;
19057;SDS011;9662;53.612;9.914;2022-07-29T12:05:30;1452.17;;;999.90;;
19057;SDS011;9662;53.612;9.914;2022-07-29T12:08:05;1446.90;;;999.90;;
19057;SDS011;9662;53.612;9.914;2022-07-29T12:10:36;1435.93;;;999.90;;
19057;SDS011;9662;53.612;9.914;2022-07-29T12:13:04;1427.13;;;999.90;;
19057;SDS011;9662;53.612;9.914;2022-07-29T12:15:31;1421.17;;;999.90;;
19057;SDS011;9662;53.612;9.914;2022-07-29T12:17:58;1423.75;;;999.90;;
19057;SDS011;9662;53.612;9.914;2022-07-29T12:20:34;1431.53;;;999.90;;
19057;SDS011;9662;53.612;9.914;2022-07-29T12:23:05;1416.15;;;999.90;;
19057;SDS011;9662;53.612;9.914;2022-07-29T12:25:34;1432.38;;;999.90;;
19057;SDS011;9662;53.612;9.914;2022-07-29T12:28:03;1444.20;;;999.90;;
19057;SDS011;9662;53.612;9.914;2022-07-29T12:30:38;1441.75;;;999.90;;
19057;SDS011;9662;53.612;9.914;2022-07-29T12:35:57;1504.40;;;999.90;;
19057;SDS011;9662;53.612;9.914;2022-07-29T12:38:27;1444.50;;;999.90;;
19057;SDS011;9662;53.612;9.914;2022-07-29T12:40:54;1444.30;;;999.90;;
19057;SDS011;9662;53.612;9.914;2022-07-29T12:43:22;1466.75;;;999.90;;
19057;SDS011;9662;53.612;9.914;2022-07-29T12:45:50;1459.18;;;999.90;;
19057;SDS011;9662;53.612;9.914;2022-07-29T12:48:32;1449.47;;;999.90;;
19057;SDS011;9662;53.612;9.914;2022-07-29T12:51:00;1424.30;;;999.90;;
19057;SDS011;9662;53.612;9.914;2022-07-29T12:53:29;1445.20;;;999.90;;
19057;SDS011;9662;53.612;9.914;2022-07-29T12:55:57;1438.03;;;999.90;;
19057;SDS011;9662;53.612;9.914;2022-07-29T12:58:30;1409.35;;;999.90;;
19057;SDS011;9662;53.612;9.914;2022-07-29T13:01:00;1407.90;;;999.90;;
19057;SDS011;9662;53.612;9.914;2022-07-29T13:03:44;1409.13;;;999.90;;
19057;SDS011;9662;53.612;9.914;2022-07-29T13:06:27;1428.75;;;999.90;;
19057;SDS011;9662;53.612;9.914;2022-07-29T13:09:00;1433.75;;;999.90;;
19057;SDS011;9662;53.612;9.914;2022-07-29T13:11:29;1424.80;;;999.90;;
19057;SDS011;9662;53.612;9.914;2022-07-29T13:13:56;1384.57;;;999.90;;
19057;SDS011;9662;53.612;9.914;2022-07-29T13:16:23;1412.57;;;999.90;;
19057;SDS011;9662;53.612;9.914;2022-07-29T13:19:02;1379.47;;;999.90;;
19057;SDS011;9662;53.612;9.914;2022-07-29T13:21:33;1398.68;;;999.90;;
19057;SDS011;9662;53.612;9.914;2022-07-29T13:24:01;1369.45;;;999.90;;
19057;SDS011;9662;53.612;9.914;2022-07-29T13:26:29;1339.68;;;999.90;;
19057;SDS011;9662;53.612;9.914;2022-07-29T13:28:55;1368.10;;;999.90;;
19057;SDS011;9662;53.612;9.914;2022-07-29T13:31:22;1394.40;;;999.90;;
19057;SDS011;9662;53.612;9.914;2022-07-29T13:33:49;1425.68;;;999.90;;
19057;SDS011;9662;53.612;9.914;2022-07-29T13:36:16;1439.97;;;999.90;;
19057;SDS011;9662;53.612;9.914;2022-07-29T13:38:42;1440.10;;;999.90;;
19057;SDS011;9662;53.612;9.914;2022-07-29T13:41:11;1445.88;;;999.90;;
19057;SDS011;9662;53.612;9.914;2022-07-29T13:43:38;1438.43;;;999.90;;
19057;SDS011;9662;53.612;9.914;2022-07-29T13:46:04;1422.25;;;999.90;;
19057;SDS011;9662;53.612;9.914;2022-07-29T13:48:31;1417.78;;;999.90;;
19057;SDS011;9662;53.612;9.914;2022-07-29T13:50:58;1387.90;;;999.90;;
19057;SDS011;9662;53.612;9.914;2022-07-29T13:53:25;1390.67;;;999.90;;
19057;SDS011;9662;53.612;9.914;2022-07-29T13:55:52;1405.53;;;999.90;;
19057;SDS011;9662;53.612;9.914;2022-07-29T13:58:21;1422.72;;;999.90;;
19057;SDS011;9662;53.612;9.914;2022-07-29T14:00:47;1421.77;;;999.90;;
19057;SDS011;9662;53.612;9.914;2022-07-29T14:03:14;1376.53;;;999.90;;
19057;SDS011;9662;53.612;9.914;2022-07-29T14:05:41;1348.15;;;999.90;;
19057;SDS011;9662;53.612;9.914;2022-07-29T14:08:08;1340.55;;;999.90;;
19057;SDS011;9662;53.612;9.914;2022-07-29T14:10:35;1345.75;;;999.90;;
19057;SDS011;9662;53.612;9.914;2022-07-29T14:13:02;1394.05;;;999.90;;
19057;SDS011;9662;53.612;9.914;2022-07-29T14:15:30;1400.88;;;999.90;;
19057;SDS011;9662;53.612;9.914;2022-07-29T14:17:57;1385.32;;;999.90;;
19057;SDS011;9662;53.612;9.914;2022-07-29T14:20:23;1379.28;;;999.90;;
19057;SDS011;9662;53.612;9.914;2022-07-29T14:22:50;1397.28;;;999.90;;
19057;SDS011;9662;53.612;9.914;2022-07-29T14:25:17;1352.95;;;999.90;;
19057;SDS011;9662;53.612;9.914;2022-07-29T14:27:43;1360.25;;;999.90;;